sensor_id;sensor_type;location;lat;lon;timestamp;P1;durP1;ratioP1;P2;durP2;ratioP2
27895;SDS011;15241;48.374;10.876;2023-09-18T00:00:07;7.80;;;5.90;;
27895;SDS011;15241;48.374;10.876;2023-09-18T00:05:07;7.83;;;5.55;;
27895;SDS011;15241;48.374;10.876;2023-09-18T00:10:07;6.25;;;5.37;;
27895;SDS011;15241;48.374;10.876;2023-09-18T00:15:07;6.20;;;5.60;;
27895;SDS011;15241;48.374;10.876;2023-09-18T00:20:07;5.70;;;5.08;;
27895;SDS011;15241;48.374;10.876;2023-09-18T00:25:07;7.50;;;5.40;;
27895;SDS011;15241;48.374;10.876;2023-09-18T00:30:07;5.95;;;5.15;;
27895;SDS011;15241;48.374;10.876;2023-09-18T00:35:06;5.70;;;5.05;;
27895;SDS011;15241;48.374;10.876;2023-09-18T00:40:07;6.03;;;5.33;;
27895;SDS011;15241;48.374;10.876;2023-09-18T00:45:07;9.28;;;6.08;;
27895;SDS011;15241;48.374;10.876;2023-09-18T00:50:07;6.15;;;5.22;;
27895;SDS011;15241;48.374;10.876;2023-09-18T00:55:08;6.58;;;5.47;;
27895;SDS011;15241;48.374;10.876;2023-09-18T01:00:07;7.95;;;5.17;;
27895;SDS011;15241;48.374;10.876;2023-09-18T01:05:07;6.28;;;5.62;;
27895;SDS011;15241;48.374;10.876;2023-09-18T01:10:07;7.75;;;5.53;;
27895;SDS011;15241;48.374;10.876;2023-09-18T01:15:07;7.53;;;5.22;;
27895;SDS011;15241;48.374;10.876;2023-09-18T01:20:16;6.10;;;5.50;;
27895;SDS011;15241;48.374;10.876;2023-09-18T01:25:15;5.95;;;5.05;;
27895;SDS011;15241;48.374;10.876;2023-09-18T01:30:13;6.70;;;5.42;;
27895;SDS011;15241;48.374;10.876;2023-09-18T01:35:13;7.87;;;5.92;;
27895;SDS011;15241;48.374;10.876;2023-09-18T01:40:12;6.75;;;6.05;;
27895;SDS011;15241;48.374;10.876;2023-09-18T01:45:11;6.20;;;5.60;;
27895;SDS011;15241;48.374;10.876;2023-09-18T01:50:10;5.97;;;5.45;;
27895;SDS011;15241;48.374;10.876;2023-09-18T01:55:10;6.67;;;5.80;;
27895;SDS011;15241;48.374;10.876;2023-09-18T02:00:10;6.62;;;5.75;;
27895;SDS011;15241;48.374;10.876;2023-09-18T02:05:10;7.75;;;5.85;;
27895;SDS011;15241;48.374;10.876;2023-09-18T02:10:09;6.97;;;6.22;;
27895;SDS011;15241;48.374;10.876;2023-09-18T02:15:09;6.60;;;5.45;;
27895;SDS011;15241;48.374;10.876;2023-09-18T02:20:16;6.92;;;6.20;;
27895;SDS011;15241;48.374;10.876;2023-09-18T02:25:15;7.60;;;6.03;;
27895;SDS011;15241;48.374;10.876;2023-09-18T02:30:14;8.48;;;6.47;;
27895;SDS011;15241;48.374;10.876;2023-09-18T02:35:13;9.35;;;5.85;;
27895;SDS011;15241;48.374;10.876;2023-09-18T02:40:12;7.12;;;6.45;;
27895;SDS011;15241;48.374;10.876;2023-09-18T02:45:10;7.20;;;6.50;;
27895;SDS011;15241;48.374;10.876;2023-09-18T02:50:09;6.70;;;5.87;;
27895;SDS011;15241;48.374;10.876;2023-09-18T02:55:08;7.60;;;6.40;;
27895;SDS011;15241;48.374;10.876;2023-09-18T03:00:07;6.97;;;6.00;;
27895;SDS011;15241;48.374;10.876;2023-09-18T03:05:08;8.15;;;5.90;;
27895;SDS011;15241;48.374;10.876;2023-09-18T03:10:08;6.67;;;6.03;;
27895;SDS011;15241;48.374;10.876;2023-09-18T03:15:08;7.30;;;6.60;;
27895;SDS011;15241;48.374;10.876;2023-09-18T03:20:08;7.10;;;6.10;;
27895;SDS011;15241;48.374;10.876;2023-09-18T03:25:07;7.00;;;5.90;;
27895;SDS011;15241;48.374;10.876;2023-09-18T03:30:07;6.97;;;6.15;;
27895;SDS011;15241;48.374;10.876;2023-09-18T03:35:07;6.75;;;6.15;;
27895;SDS011;15241;48.374;10.876;2023-09-18T03:40:07;8.00;;;5.70;;
27895;SDS011;15241;48.374;10.876;2023-09-18T03:45:08;8.38;;;6.83;;
27895;SDS011;15241;48.374;10.876;2023-09-18T03:50:08;8.20;;;6.55;;
27895;SDS011;15241;48.374;10.876;2023-09-18T03:55:08;8.45;;;6.45;;
27895;SDS011;15241;48.374;10.876;2023-09-18T04:00:08;8.65;;;7.00;;
27895;SDS011;15241;48.374;10.876;2023-09-18T04:05:07;8.75;;;6.22;;
27895;SDS011;15241;48.374;10.876;2023-09-18T04:10:06;8.73;;;6.70;;
27895;SDS011;15241;48.374;10.876;2023-09-18T04:15:06;9.98;;;6.22;;
27895;SDS011;15241;48.374;10.876;2023-09-18T04:20:07;7.78;;;6.35;;
27895;SDS011;15241;48.374;10.876;2023-09-18T04:25:07;7.85;;;7.05;;
27895;SDS011;15241;48.374;10.876;2023-09-18T04:30:07;8.65;;;6.50;;
27895;SDS011;15241;48.374;10.876;2023-09-18T04:35:08;7.33;;;6.03;;
27895;SDS011;15241;48.374;10.876;2023-09-18T04:40:08;7.33;;;6.62;;
27895;SDS011;15241;48.374;10.876;2023-09-18T04:45:08;8.55;;;7.22;;
27895;SDS011;15241;48.374;10.876;2023-09-18T04:50:07;9.55;;;7.15;;
27895;SDS011;15241;48.374;10.876;2023-09-18T04:55:07;10.65;;;7.05;;
27895;SDS011;15241;48.374;10.876;2023-09-18T05:00:06;8.90;;;7.03;;
27895;SDS011;15241;48.374;10.876;2023-09-18T05:05:06;10.30;;;6.58;;
27895;SDS011;15241;48.374;10.876;2023-09-18T05:10:06;7.37;;;6.42;;
27895;SDS011;15241;48.374;10.876;2023-09-18T05:15:06;8.85;;;6.80;;
27895;SDS011;15241;48.374;10.876;2023-09-18T05:20:07;8.13;;;6.28;;
27895;SDS011;15241;48.374;10.876;2023-09-18T05:25:07;9.25;;;6.42;;
27895;SDS011;15241;48.374;10.876;2023-09-18T05:30:08;11.08;;;6.90;;
27895;SDS011;15241;48.374;10.876;2023-09-18T05:35:07;8.38;;;6.25;;
27895;SDS011;15241;48.374;10.876;2023-09-18T05:40:10;8.73;;;6.12;;
27895;SDS011;15241;48.374;10.876;2023-09-18T05:45:10;11.40;;;6.95;;
27895;SDS011;15241;48.374;10.876;2023-09-18T05:50:09;7.45;;;6.15;;
27895;SDS011;15241;48.374;10.876;2023-09-18T05:55:09;7.70;;;5.10;;
27895;SDS011;15241;48.374;10.876;2023-09-18T06:00:09;8.35;;;5.15;;
27895;SDS011;15241;48.374;10.876;2023-09-18T06:05:08;6.17;;;4.80;;
27895;SDS011;15241;48.374;10.876;2023-09-18T06:10:07;10.95;;;5.15;;
27895;SDS011;15241;48.374;10.876;2023-09-18T06:15:07;7.47;;;6.03;;
27895;SDS011;15241;48.374;10.876;2023-09-18T06:20:07;10.58;;;5.70;;
27895;SDS011;15241;48.374;10.876;2023-09-18T06:25:07;7.50;;;5.85;;
27895;SDS011;15241;48.374;10.876;2023-09-18T06:30:06;7.28;;;5.17;;
27895;SDS011;15241;48.374;10.876;2023-09-18T06:35:06;9.60;;;6.53;;
27895;SDS011;15241;48.374;10.876;2023-09-18T06:40:07;8.10;;;6.12;;
27895;SDS011;15241;48.374;10.876;2023-09-18T06:45:07;9.43;;;6.75;;
27895;SDS011;15241;48.374;10.876;2023-09-18T06:50:06;7.80;;;6.03;;
27895;SDS011;15241;48.374;10.876;2023-09-18T06:55:05;9.80;;;6.12;;
27895;SDS011;15241;48.374;10.876;2023-09-18T07:00:06;8.53;;;6.05;;
27895;SDS011;15241;48.374;10.876;2023-09-18T07:05:06;7.33;;;5.67;;
27895;SDS011;15241;48.374;10.876;2023-09-18T07:10:05;7.12;;;5.97;;
27895;SDS011;15241;48.374;10.876;2023-09-18T07:15:05;8.55;;;6.12;;
27895;SDS011;15241;48.374;10.876;2023-09-18T07:20:06;7.58;;;5.92;;
27895;SDS011;15241;48.374;10.876;2023-09-18T07:25:06;7.03;;;5.85;;
27895;SDS011;15241;48.374;10.876;2023-09-18T07:30:06;6.72;;;5.70;;
27895;SDS011;15241;48.374;10.876;2023-09-18T07:35:07;5.95;;;5.30;;
27895;SDS011;15241;48.374;10.876;2023-09-18T07:40:07;8.13;;;5.28;;
27895;SDS011;15241;48.374;10.876;2023-09-18T07:45:07;5.85;;;5.25;;
27895;SDS011;15241;48.374;10.876;2023-09-18T07:50:06;10.63;;;5.50;;
27895;SDS011;15241;48.374;10.876;2023-09-18T07:55:07;6.20;;;5.55;;
27895;SDS011;15241;48.374;10.876;2023-09-18T08:00:07;6.20;;;5.28;;
27895;SDS011;15241;48.374;10.876;2023-09-18T08:05:06;6.45;;;4.85;;
27895;SDS011;15241;48.374;10.876;2023-09-18T08:10:07;5.00;;;4.50;;
27895;SDS011;15241;48.374;10.876;2023-09-18T08:15:07;6.35;;;4.10;;
27895;SDS011;15241;48.374;10.876;2023-09-18T08:20:08;7.78;;;4.45;;
27895;SDS011;15241;48.374;10.876;2023-09-18T08:25:07;9.50;;;5.10;;
27895;SDS011;15241;48.374;10.876;2023-09-18T08:30:08;6.58;;;4.08;;
27895;SDS011;15241;48.374;10.876;2023-09-18T08:35:08;7.50;;;4.42;;
27895;SDS011;15241;48.374;10.876;2023-09-18T08:40:09;7.03;;;3.55;;
27895;SDS011;15241;48.374;10.876;2023-09-18T08:45:09;6.58;;;3.62;;
27895;SDS011;15241;48.374;10.876;2023-09-18T08:50:09;5.10;;;3.65;;
27895;SDS011;15241;48.374;10.876;2023-09-18T08:55:09;7.10;;;3.45;;
27895;SDS011;15241;48.374;10.876;2023-09-18T09:00:08;11.28;;;4.00;;
27895;SDS011;15241;48.374;10.876;2023-09-18T09:05:09;7.25;;;3.40;;
27895;SDS011;15241;48.374;10.876;2023-09-18T09:10:08;5.62;;;3.10;;
27895;SDS011;15241;48.374;10.876;2023-09-18T09:15:07;8.73;;;3.75;;
27895;SDS011;15241;48.374;10.876;2023-09-18T09:20:10;5.47;;;3.30;;
27895;SDS011;15241;48.374;10.876;2023-09-18T09:25:23;5.83;;;3.47;;
27895;SDS011;15241;48.374;10.876;2023-09-18T09:30:23;6.33;;;2.80;;
27895;SDS011;15241;48.374;10.876;2023-09-18T09:35:23;8.53;;;3.12;;
27895;SDS011;15241;48.374;10.876;2023-09-18T09:40:23;9.35;;;3.10;;
27895;SDS011;15241;48.374;10.876;2023-09-18T09:45:22;7.35;;;3.05;;
27895;SDS011;15241;48.374;10.876;2023-09-18T09:50:21;8.48;;;2.85;;
27895;SDS011;15241;48.374;10.876;2023-09-18T09:55:21;13.90;;;2.47;;
27895;SDS011;15241;48.374;10.876;2023-09-18T10:00:21;10.15;;;2.15;;
27895;SDS011;15241;48.374;10.876;2023-09-18T10:05:20;11.95;;;2.37;;
27895;SDS011;15241;48.374;10.876;2023-09-18T10:10:19;12.43;;;3.00;;
27895;SDS011;15241;48.374;10.876;2023-09-18T10:15:18;5.67;;;2.27;;
27895;SDS011;15241;48.374;10.876;2023-09-18T10:20:17;8.85;;;2.50;;
27895;SDS011;15241;48.374;10.876;2023-09-18T10:25:17;7.97;;;2.80;;
27895;SDS011;15241;48.374;10.876;2023-09-18T10:30:17;9.08;;;2.58;;
27895;SDS011;15241;48.374;10.876;2023-09-18T10:35:16;8.25;;;2.58;;
27895;SDS011;15241;48.374;10.876;2023-09-18T10:40:15;8.75;;;2.42;;
27895;SDS011;15241;48.374;10.876;2023-09-18T10:45:14;10.25;;;2.80;;
27895;SDS011;15241;48.374;10.876;2023-09-18T10:50:12;12.50;;;3.33;;
27895;SDS011;15241;48.374;10.876;2023-09-18T10:55:20;9.90;;;3.08;;
27895;SDS011;15241;48.374;10.876;2023-09-18T11:00:20;9.80;;;2.87;;
27895;SDS011;15241;48.374;10.876;2023-09-18T11:05:29;9.23;;;2.30;;
27895;SDS011;15241;48.374;10.876;2023-09-18T11:10:29;10.48;;;2.50;;
27895;SDS011;15241;48.374;10.876;2023-09-18T11:15:31;7.72;;;2.35;;
27895;SDS011;15241;48.374;10.876;2023-09-18T11:20:29;8.40;;;1.62;;
27895;SDS011;15241;48.374;10.876;2023-09-18T11:25:38;11.73;;;2.25;;
27895;SDS011;15241;48.374;10.876;2023-09-18T11:30:37;9.13;;;2.40;;
27895;SDS011;15241;48.374;10.876;2023-09-18T11:35:38;6.35;;;2.08;;
27895;SDS011;15241;48.374;10.876;2023-09-18T11:40:38;6.20;;;2.47;;
27895;SDS011;15241;48.374;10.876;2023-09-18T11:45:37;9.20;;;2.98;;
27895;SDS011;15241;48.374;10.876;2023-09-18T11:50:37;6.17;;;1.52;;
27895;SDS011;15241;48.374;10.876;2023-09-18T11:55:37;9.45;;;2.27;;
27895;SDS011;15241;48.374;10.876;2023-09-18T12:00:37;5.40;;;1.65;;
27895;SDS011;15241;48.374;10.876;2023-09-18T12:05:35;6.65;;;2.12;;
27895;SDS011;15241;48.374;10.876;2023-09-18T12:10:34;3.85;;;1.85;;
27895;SDS011;15241;48.374;10.876;2023-09-18T12:15:32;4.50;;;2.05;;
27895;SDS011;15241;48.374;10.876;2023-09-18T12:20:31;5.10;;;1.70;;
27895;SDS011;15241;48.374;10.876;2023-09-18T12:25:29;5.20;;;2.10;;
27895;SDS011;15241;48.374;10.876;2023-09-18T12:30:28;6.62;;;1.70;;
27895;SDS011;15241;48.374;10.876;2023-09-18T12:35:26;2.55;;;1.30;;
27895;SDS011;15241;48.374;10.876;2023-09-18T12:40:26;4.90;;;1.60;;
27895;SDS011;15241;48.374;10.876;2023-09-18T12:45:25;5.47;;;1.80;;
27895;SDS011;15241;48.374;10.876;2023-09-18T12:50:25;3.30;;;1.60;;
27895;SDS011;15241;48.374;10.876;2023-09-18T12:55:24;6.83;;;1.87;;
27895;SDS011;15241;48.374;10.876;2023-09-18T13:00:23;6.53;;;2.12;;
27895;SDS011;15241;48.374;10.876;2023-09-18T13:05:24;3.92;;;1.40;;
27895;SDS011;15241;48.374;10.876;2023-09-18T13:10:22;2.85;;;1.20;;
27895;SDS011;15241;48.374;10.876;2023-09-18T13:15:24;2.50;;;1.40;;
27895;SDS011;15241;48.374;10.876;2023-09-18T13:20:25;2.77;;;1.20;;
27895;SDS011;15241;48.374;10.876;2023-09-18T13:25:24;4.35;;;1.67;;
27895;SDS011;15241;48.374;10.876;2023-09-18T13:30:24;1.98;;;1.10;;
27895;SDS011;15241;48.374;10.876;2023-09-18T13:35:23;3.25;;;1.22;;
27895;SDS011;15241;48.374;10.876;2023-09-18T13:40:22;4.03;;;1.20;;
27895;SDS011;15241;48.374;10.876;2023-09-18T13:45:20;2.25;;;1.10;;
27895;SDS011;15241;48.374;10.876;2023-09-18T13:50:19;2.47;;;1.05;;
27895;SDS011;15241;48.374;10.876;2023-09-18T13:55:17;2.55;;;1.00;;
27895;SDS011;15241;48.374;10.876;2023-09-18T14:00:17;4.03;;;1.30;;
27895;SDS011;15241;48.374;10.876;2023-09-18T14:05:15;2.30;;;1.37;;
27895;SDS011;15241;48.374;10.876;2023-09-18T14:10:14;2.67;;;1.20;;
27895;SDS011;15241;48.374;10.876;2023-09-18T14:15:13;1.82;;;1.10;;
27895;SDS011;15241;48.374;10.876;2023-09-18T14:20:12;2.92;;;1.40;;
27895;SDS011;15241;48.374;10.876;2023-09-18T14:25:10;2.25;;;1.40;;
27895;SDS011;15241;48.374;10.876;2023-09-18T14:30:10;2.35;;;1.30;;
27895;SDS011;15241;48.374;10.876;2023-09-18T14:35:10;3.72;;;1.10;;
27895;SDS011;15241;48.374;10.876;2023-09-18T14:40:09;1.60;;;1.10;;
27895;SDS011;15241;48.374;10.876;2023-09-18T14:45:09;1.52;;;1.17;;
27895;SDS011;15241;48.374;10.876;2023-09-18T14:50:09;1.20;;;1.10;;
27895;SDS011;15241;48.374;10.876;2023-09-18T14:55:08;3.17;;;1.17;;
27895;SDS011;15241;48.374;10.876;2023-09-18T15:00:08;1.62;;;1.40;;
27895;SDS011;15241;48.374;10.876;2023-09-18T15:05:08;3.12;;;1.20;;
27895;SDS011;15241;48.374;10.876;2023-09-18T15:10:07;1.65;;;1.00;;
27895;SDS011;15241;48.374;10.876;2023-09-18T15:15:07;9.88;;;1.98;;
27895;SDS011;15241;48.374;10.876;2023-09-18T15:20:08;2.30;;;1.30;;
27895;SDS011;15241;48.374;10.876;2023-09-18T15:25:07;1.42;;;1.30;;
27895;SDS011;15241;48.374;10.876;2023-09-18T15:30:07;3.80;;;1.40;;
27895;SDS011;15241;48.374;10.876;2023-09-18T15:35:08;1.95;;;1.30;;
27895;SDS011;15241;48.374;10.876;2023-09-18T15:40:08;4.33;;;1.35;;
27895;SDS011;15241;48.374;10.876;2023-09-18T15:45:08;3.50;;;1.47;;
27895;SDS011;15241;48.374;10.876;2023-09-18T15:50:07;3.90;;;1.60;;
27895;SDS011;15241;48.374;10.876;2023-09-18T15:55:07;1.02;;;0.90;;
27895;SDS011;15241;48.374;10.876;2023-09-18T16:00:07;2.65;;;1.00;;
27895;SDS011;15241;48.374;10.876;2023-09-18T16:05:06;3.58;;;1.45;;
27895;SDS011;15241;48.374;10.876;2023-09-18T16:10:06;1.22;;;0.88;;
27895;SDS011;15241;48.374;10.876;2023-09-18T16:15:06;1.35;;;0.80;;
27895;SDS011;15241;48.374;10.876;2023-09-18T16:20:10;2.98;;;1.27;;
27895;SDS011;15241;48.374;10.876;2023-09-18T16:25:08;2.37;;;0.80;;
27895;SDS011;15241;48.374;10.876;2023-09-18T16:30:08;1.62;;;0.62;;
27895;SDS011;15241;48.374;10.876;2023-09-18T16:35:08;2.62;;;0.98;;
27895;SDS011;15241;48.374;10.876;2023-09-18T16:40:08;3.05;;;1.00;;
27895;SDS011;15241;48.374;10.876;2023-09-18T16:45:09;3.02;;;1.20;;
27895;SDS011;15241;48.374;10.876;2023-09-18T16:50:08;3.33;;;1.57;;
27895;SDS011;15241;48.374;10.876;2023-09-18T16:55:08;2.60;;;1.32;;
27895;SDS011;15241;48.374;10.876;2023-09-18T17:00:07;3.20;;;1.22;;
27895;SDS011;15241;48.374;10.876;2023-09-18T17:05:07;2.80;;;1.30;;
27895;SDS011;15241;48.374;10.876;2023-09-18T17:10:06;4.58;;;1.07;;
27895;SDS011;15241;48.374;10.876;2023-09-18T17:15:06;4.47;;;1.22;;
27895;SDS011;15241;48.374;10.876;2023-09-18T17:20:07;3.45;;;1.25;;
27895;SDS011;15241;48.374;10.876;2023-09-18T17:25:08;2.10;;;1.30;;
27895;SDS011;15241;48.374;10.876;2023-09-18T17:30:08;5.03;;;1.62;;
27895;SDS011;15241;48.374;10.876;2023-09-18T17:35:08;3.75;;;1.47;;
27895;SDS011;15241;48.374;10.876;2023-09-18T17:40:08;4.22;;;1.40;;
27895;SDS011;15241;48.374;10.876;2023-09-18T17:45:08;2.72;;;1.40;;
27895;SDS011;15241;48.374;10.876;2023-09-18T17:50:07;1.92;;;1.17;;
27895;SDS011;15241;48.374;10.876;2023-09-18T17:55:07;2.77;;;1.30;;
27895;SDS011;15241;48.374;10.876;2023-09-18T18:00:06;1.30;;;1.20;;
27895;SDS011;15241;48.374;10.876;2023-09-18T18:05:06;1.65;;;1.22;;
27895;SDS011;15241;48.374;10.876;2023-09-18T18:10:06;2.45;;;1.87;;
27895;SDS011;15241;48.374;10.876;2023-09-18T18:15:08;1.37;;;1.10;;
27895;SDS011;15241;48.374;10.876;2023-09-18T18:20:08;2.47;;;1.10;;
27895;SDS011;15241;48.374;10.876;2023-09-18T18:25:07;5.17;;;1.57;;
27895;SDS011;15241;48.374;10.876;2023-09-18T18:30:07;1.75;;;1.15;;
27895;SDS011;15241;48.374;10.876;2023-09-18T18:35:07;2.75;;;1.00;;
27895;SDS011;15241;48.374;10.876;2023-09-18T18:40:07;4.67;;;1.20;;
27895;SDS011;15241;48.374;10.876;2023-09-18T18:45:07;1.27;;;0.95;;
27895;SDS011;15241;48.374;10.876;2023-09-18T18:50:07;2.47;;;1.40;;
27895;SDS011;15241;48.374;10.876;2023-09-18T18:55:07;3.20;;;1.30;;
27895;SDS011;15241;48.374;10.876;2023-09-18T19:00:08;3.75;;;1.47;;
27895;SDS011;15241;48.374;10.876;2023-09-18T19:05:08;3.67;;;1.92;;
27895;SDS011;15241;48.374;10.876;2023-09-18T19:10:07;4.03;;;1.50;;
27895;SDS011;15241;48.374;10.876;2023-09-18T19:15:07;2.10;;;1.47;;
27895;SDS011;15241;48.374;10.876;2023-09-18T19:20:07;5.95;;;1.98;;
27895;SDS011;15241;48.374;10.876;2023-09-18T19:25:07;1.45;;;1.17;;
27895;SDS011;15241;48.374;10.876;2023-09-18T19:30:07;3.05;;;1.80;;
27895;SDS011;15241;48.374;10.876;2023-09-18T19:35:06;2.67;;;1.42;;
27895;SDS011;15241;48.374;10.876;2023-09-18T19:40:06;2.33;;;1.40;;
27895;SDS011;15241;48.374;10.876;2023-09-18T19:45:06;3.40;;;1.62;;
27895;SDS011;15241;48.374;10.876;2023-09-18T19:50:07;1.77;;;1.22;;
27895;SDS011;15241;48.374;10.876;2023-09-18T19:55:07;2.95;;;1.20;;
27895;SDS011;15241;48.374;10.876;2023-09-18T20:00:07;2.33;;;1.12;;
27895;SDS011;15241;48.374;10.876;2023-09-18T20:05:06;3.55;;;1.60;;
27895;SDS011;15241;48.374;10.876;2023-09-18T20:10:06;2.60;;;1.50;;
27895;SDS011;15241;48.374;10.876;2023-09-18T20:15:06;2.30;;;1.20;;
27895;SDS011;15241;48.374;10.876;2023-09-18T20:20:08;3.52;;;1.80;;
27895;SDS011;15241;48.374;10.876;2023-09-18T20:25:07;3.92;;;1.27;;
27895;SDS011;15241;48.374;10.876;2023-09-18T20:30:07;2.98;;;1.45;;
27895;SDS011;15241;48.374;10.876;2023-09-18T20:35:09;2.62;;;1.40;;
27895;SDS011;15241;48.374;10.876;2023-09-18T20:40:08;4.10;;;1.35;;
27895;SDS011;15241;48.374;10.876;2023-09-18T20:45:07;2.08;;;1.17;;
27895;SDS011;15241;48.374;10.876;2023-09-18T20:50:07;2.15;;;1.42;;
27895;SDS011;15241;48.374;10.876;2023-09-18T20:55:08;2.90;;;1.60;;
27895;SDS011;15241;48.374;10.876;2023-09-18T21:00:09;2.55;;;1.30;;
27895;SDS011;15241;48.374;10.876;2023-09-18T21:05:09;2.95;;;1.22;;
27895;SDS011;15241;48.374;10.876;2023-09-18T21:10:08;4.05;;;1.30;;
27895;SDS011;15241;48.374;10.876;2023-09-18T21:15:07;5.78;;;1.50;;
27895;SDS011;15241;48.374;10.876;2023-09-18T21:20:08;2.45;;;1.20;;
27895;SDS011;15241;48.374;10.876;2023-09-18T21:25:08;1.42;;;1.32;;
27895;SDS011;15241;48.374;10.876;2023-09-18T21:30:08;2.83;;;1.32;;
27895;SDS011;15241;48.374;10.876;2023-09-18T21:35:07;2.37;;;1.27;;
27895;SDS011;15241;48.374;10.876;2023-09-18T21:40:08;1.90;;;1.35;;
27895;SDS011;15241;48.374;10.876;2023-09-18T21:45:08;2.40;;;1.60;;
27895;SDS011;15241;48.374;10.876;2023-09-18T21:50:07;2.65;;;1.50;;
27895;SDS011;15241;48.374;10.876;2023-09-18T21:55:07;2.75;;;1.50;;
27895;SDS011;15241;48.374;10.876;2023-09-18T22:00:07;2.15;;;1.45;;
27895;SDS011;15241;48.374;10.876;2023-09-18T22:05:07;2.37;;;1.47;;
27895;SDS011;15241;48.374;10.876;2023-09-18T22:10:07;3.00;;;1.50;;
27895;SDS011;15241;48.374;10.876;2023-09-18T22:15:06;2.45;;;1.65;;
27895;SDS011;15241;48.374;10.876;2023-09-18T22:20:06;3.20;;;1.65;;
27895;SDS011;15241;48.374;10.876;2023-09-18T22:25:06;1.72;;;1.35;;
27895;SDS011;15241;48.374;10.876;2023-09-18T22:30:08;4.33;;;1.80;;
27895;SDS011;15241;48.374;10.876;2023-09-18T22:35:08;3.22;;;1.40;;
27895;SDS011;15241;48.374;10.876;2023-09-18T22:56:10;2.90;;;1.60;;
27895;SDS011;15241;48.374;10.876;2023-09-18T23:01:09;2.62;;;1.30;;
27895;SDS011;15241;48.374;10.876;2023-09-18T23:06:08;1.35;;;1.10;;
27895;SDS011;15241;48.374;10.876;2023-09-18T23:11:06;2.27;;;1.40;;
27895;SDS011;15241;48.374;10.876;2023-09-18T23:16:05;1.50;;;1.10;;
27895;SDS011;15241;48.374;10.876;2023-09-18T23:21:03;2.10;;;1.55;;
27895;SDS011;15241;48.374;10.876;2023-09-18T23:26:02;2.45;;;1.30;;
27895;SDS011;15241;48.374;10.876;2023-09-18T23:31:00;3.08;;;1.10;;
27895;SDS011;15241;48.374;10.876;2023-09-18T23:35:58;4.87;;;1.25;;
27895;SDS011;15241;48.374;10.876;2023-09-18T23:40:57;2.67;;;1.40;;
27895;SDS011;15241;48.374;10.876;2023-09-18T23:45:55;3.33;;;1.15;;
27895;SDS011;15241;48.374;10.876;2023-09-18T23:50:55;1.57;;;1.05;;
27895;SDS011;15241;48.374;10.876;2023-09-18T23:55:54;2.45;;;1.10;;
